Aviation Digital Data Service (ADDS)

Output produced by METARs form (0505 UTC 26 July 2014)
found at http://aviationweather.gov/adds/metars/
 
KAUG 260329Z 2603/2624 VRB03KT 6SM HZ SKC 
     FM261300 22007KT P6SM BKN200 
     FM261800 18010KT P6SM SCT060